Wheeling Ohio County Airport
KHLG : rendu visible

Aérodrome :











RETROUVEZ-NOUS SUR...

 
LOGIN :

S'inscrire | Disclaimer

   EN    FR    IT 

 









Légende :    VFR   VFR Marginal   IFR   IFR Intensif   IFR Très Intensif
Visi : 
Plafond : 
>= 8 km
>= 3000ft
5 à 8 km
1000 à 3000 ft
1500m à 5 km
500 à 1000 ft
800 à 1500m
200 à 500 ft
< 800m
< 200 ft
Symboles :   Orages  Brouillard  Fortes neiges  Fortes précipitations  Vent > 20 kt






- Altitude de l'aérodrome : 1195 ft


KHLG - Wheeling Ohio County

DERNIER METAR :
  • 150653Z AUTO 24005KT 10SM CLR M01/M06 A3026 RMK AO2 SLP258 T10061061

METARs EXPIRÉS :
  • 150553Z AUTO 21005KT 10SM CLR 00/M07 A3026 RMK AO2 SLP260 T00001067 10028 21006 53000
  • 150453Z AUTO 19006KT 10SM CLR 00/M07 A3025 RMK AO2 SLP257 T00001067 400611039

TAF KHLG
Valide du 15 à 06h jusqu'au 16 à 06h UTC


150525Z 1506/1606 23006KT P6SM SCT250
FM160300 01005KT P6SM OVC025



MET'MAP, la Météo Aéronautique d'un coup d'oeil ! - Copyright ORBIFLY Décembre 2007 - Disclaimer

ORBIFLY MET'MAP TEAM :

Programmation & Développement : Alexandra Zaïnal
Conception & Développement : Baudouin d'Aumeries
Co-Programmation & Développement : Marc-Olivier Méhu
Soutien technique & logistique : Manuel Goepfert

Contact : metmap@orbifly.com




SOURCES & CREDITS :

   NOAA       Earth
Advisory